Latest Weather Observations for Roseworthy

IDS60801

Issued at 7:35 pm CST Thursday 2 October 2014 (issued every 30 minutes, with the page automatically refreshed every 10 minutes)

About weather observations | Map of weather stations | Latest weather observations for SA | Other Formats
Station Details ID: 023122 Name: ROSEWORTHY AWS Lat: -34.51 Lon: 138.68 Height: 65.0 m
Data from the previous 72 hours. | See also: Recent months at Roseworthy
Date/Time
CST
Temp
°C
App
Temp
°C
Dew
Point
Rel
Hum
%
Delta-T
°C
Wind Press
QNH
hPa
Press
MSL
hPa
Rain
since 9 am
mm
Dir
 
Spd
km/h
Gust
km/h
Spd
kts
Gust
kts
02/07:30pm 8.6 5.6 6.2 85 1.1 NE 11 13 6 7 1024.3 - 0.0
02/07:00pm 11.5 9.9 8.0 79 1.7 SSW 6 7 3 4 1024.1 - 0.0
02/06:30pm 12.6 10.2 8.5 76 2.0 SW 11 13 6 7 1024.1 - 0.0
02/06:00pm 14.3 11.2 8.7 69 2.8 SW 15 20 8 11 1023.9 1023.9 0.0
02/05:30pm 16.1 12.9 8.6 61 3.8 SW 15 20 8 11 1024.0 - 0.0
02/05:00pm 17.0 13.0 8.2 56 4.5 SW 19 22 10 12 1023.7 - 0.0
02/04:30pm 17.9 14.2 7.9 52 5.1 SSW 17 26 9 14 1023.6 - 0.0
02/04:00pm 19.2 15.8 7.6 47 5.9 SSW 15 22 8 12 1023.7 - 0.0
02/03:30pm 19.4 15.9 7.2 45 6.2 SW 15 22 8 12 1023.7 - 0.0
02/03:00pm 19.8 16.2 6.9 43 6.5 SSW 15 24 8 13 1024.1 1024.1 0.0
02/02:30pm 19.6 15.1 6.3 42 6.7 SW 19 28 10 15 1024.4 - 0.0
02/02:00pm 19.9 16.3 6.6 42 6.7 WSW 15 24 8 13 1024.9 - 0.0
02/01:30pm 19.5 15.4 6.3 42 6.6 SSW 17 24 9 13 1025.2 - 0.0
02/01:00pm 19.2 16.3 4.9 39 6.9 S 9 19 5 10 1025.6 - 0.0
02/12:30pm 18.6 15.6 4.0 38 6.9 S 9 17 5 9 1026.1 - 0.0
02/12:00pm 17.7 14.1 5.0 43 6.1 S 13 24 7 13 1026.5 1026.5 0.0
02/11:30am 17.3 14.4 4.9 44 5.9 WSW 9 13 5 7 1026.9 - 0.0
02/11:00am 17.2 14.1 5.5 46 5.7 SSE 11 17 6 9 1027.3 - 0.0
02/10:30am 16.7 14.1 5.9 49 5.2 ESE 9 15 5 8 1027.7 - 0.0
02/10:00am 15.2 12.8 5.4 52 4.7 E 7 13 4 7 1028.0 - 0.0
02/09:30am 14.6 12.0 5.9 56 4.2 SSW 9 15 5 8 1028.3 - 0.0
02/09:00am 14.3 12.1 6.4 59 3.8 SE 7 11 4 6 1028.4 1028.5 0.0
02/08:30am 12.6 10.4 6.2 65 3.0 E 7 9 4 5 1028.4 - 0.0
02/08:00am 12.1 10.1 7.0 71 2.4 E 7 9 4 5 1028.4 - 0.0
02/07:30am 9.8 7.7 6.5 80 1.5 E 7 9 4 5 1028.5 - 0.0
02/07:00am 6.7 4.3 5.2 90 0.7 ENE 7 9 4 5 1028.3 - 0.0
02/06:30am 3.6 -0.1 2.6 93 0.4 NE 11 13 6 7 1027.9 - 0.0
02/06:00am 1.9 -2.4 0.7 92 0.4 NE 13 15 7 8 1027.7 1027.8 0.0
02/05:30am 1.5 -2.5 0.2 91 0.5 ENE 11 11 6 6 1027.3 - 0.0
02/05:00am 2.4 -1.5 1.1 91 0.5 NE 11 13 6 7 1027.1 - 0.0
02/04:30am 3.0 -1.6 1.8 92 0.5 NE 15 17 8 9 1026.7 - 0.0
02/04:00am 1.9 -2.1 0.6 91 0.5 ENE 11 13 6 7 1026.6 - 0.0
02/03:30am 2.4 -1.5 1.1 91 0.5 ENE 11 13 6 7 1026.5 - 0.0
02/03:00am 2.8 -1.0 1.5 91 0.5 NE 11 15 6 8 1026.5 1026.5 0.0
02/02:30am 2.3 -2.0 1.0 91 0.5 NE 13 13 7 7 1026.7 - 0.0
02/02:00am 2.3 -1.7 0.8 90 0.6 ENE 11 13 6 7 1027.0 - 0.0
02/01:30am 2.7 -1.2 1.2 90 0.6 NE 11 15 6 8 1027.4 - 0.0
02/01:00am 2.7 -1.6 1.1 89 0.6 NE 13 13 7 7 1027.6 - 0.0
02/12:30am 3.5 -0.6 2.2 91 0.5 NE 13 15 7 8 1027.7 - 0.0
02/12:00am 3.0 -0.5 1.4 89 0.6 ENE 9 13 5 7 1027.7 1027.8 0.0
 
Date/Time
CST
Temp
°C
App
Temp
°C
Dew
Point
Rel
Hum
%
Delta-T
°C
Wind Press
QNH
hPa
Press
MSL
hPa
Rain
since 9 am
mm
Dir
 
Spd
km/h
Gust
km/h
Spd
kts
Gust
kts
01/11:30pm 3.1 -0.4 1.2 87 0.7 ENE 9 9 5 5 1027.8 - 0.0
01/11:00pm 3.5 0.0 1.4 86 0.8 E 9 11 5 6 1027.9 - 0.0
01/10:30pm 4.3 0.6 2.2 86 0.8 E 11 13 6 7 1028.1 - 0.0
01/10:00pm 4.4 1.0 2.1 85 0.9 E 9 11 5 6 1028.2 - 0.0
01/09:30pm 5.4 1.8 2.9 84 1.0 ENE 11 13 6 7 1028.3 - 0.0
01/09:00pm 6.4 3.2 3.2 80 1.3 E 9 9 5 5 1028.1 1028.2 0.0
01/08:30pm 8.4 5.2 5.0 79 1.5 ESE 11 15 6 8 1027.9 - 0.0
01/08:00pm 9.2 6.7 5.0 75 1.9 S 7 11 4 6 1027.4 - 0.0
01/07:30pm 9.6 6.5 5.4 75 1.9 WSW 11 13 6 7 1027.3 - 0.0
01/07:00pm 10.4 7.3 5.6 72 2.2 WSW 11 13 6 7 1027.0 - 0.0
01/06:30pm 12.0 9.0 6.1 67 2.8 WSW 11 13 6 7 1026.7 - 0.0
01/06:00pm 13.8 10.1 6.2 60 3.6 SW 15 19 8 10 1026.6 1026.6 0.0
01/05:30pm 14.9 10.2 6.2 56 4.2 SW 20 28 11 15 1026.5 - 0.0
01/05:00pm 15.9 11.5 6.6 54 4.6 SW 19 26 10 14 1026.4 - 0.0
01/04:30pm 16.3 11.7 6.4 52 4.9 SSW 20 28 11 15 1026.2 - 0.0
01/04:00pm 17.2 12.8 6.7 50 5.2 SW 19 28 10 15 1026.1 - 0.0
01/03:30pm 17.7 13.0 5.9 46 5.8 SW 20 28 11 15 1026.1 - 0.0
01/03:00pm 18.0 13.3 5.2 43 6.2 SW 19 28 10 15 1026.1 1026.1 0.0
01/02:30pm 18.0 13.3 5.2 43 6.2 SSW 19 28 10 15 1026.3 - 0.0
01/02:00pm 18.9 15.2 4.7 39 6.8 WSW 13 24 7 13 1026.4 - 0.0
01/01:30pm 18.1 13.9 3.9 39 6.7 SSW 15 26 8 14 1026.8 - 0.0
01/01:00pm 18.9 14.3 3.9 37 7.1 W 17 26 9 14 1027.0 - 0.0
01/12:30pm 18.4 14.7 4.2 39 6.8 SSW 13 26 7 14 1027.3 - 0.0
01/12:00pm 17.9 14.2 2.6 36 7.0 SSW 11 22 6 12 1027.5 1027.6 0.0
01/11:30am 17.7 13.3 2.8 37 6.9 S 15 22 8 12 1027.7 - 0.0
01/11:00am 17.0 13.8 3.3 40 6.3 S 9 15 5 8 1027.9 - 0.0
01/10:30am 16.3 13.1 3.0 41 6.1 SSW 9 19 5 10 1027.9 - 0.0
01/10:00am 16.5 12.4 4.2 44 5.8 SW 15 20 8 11 1028.0 - 0.0
01/09:30am 15.0 10.8 3.8 47 5.1 SSW 15 20 8 11 1027.9 - 0.0
01/09:00am 15.2 11.6 5.1 51 4.7 S 13 20 7 11 1027.7 1027.8 0.0
01/08:30am 14.3 10.7 5.1 54 4.3 SSE 13 20 7 11 1027.6 - 0.0
01/08:00am 13.3 10.3 5.9 61 3.5 SSE 11 17 6 9 1027.3 - 0.0
01/07:30am 12.4 10.1 7.3 71 2.5 SE 9 13 5 7 1027.0 - 0.0
01/07:00am 9.9 8.5 8.8 93 0.5 ENE 6 7 3 4 1026.6 - 0.0
01/06:30am 7.0 4.7 5.9 93 0.5 NNE 7 7 4 4 1026.3 - 0.0
01/06:00am 5.7 4.5 4.5 92 0.5 CALM 0 0 0 0 1025.7 1025.7 0.0
01/05:30am 5.9 3.6 4.9 93 0.4 E 6 7 3 4 1025.4 - 0.0
01/05:00am 4.2 0.6 3.0 92 0.5 NNE 11 11 6 6 1024.8 - 0.0
01/04:30am 3.5 -0.3 2.0 90 0.6 NNE 11 13 6 7 1024.2 - 0.0
01/04:00am 4.1 0.4 2.5 89 0.6 NNE 11 13 6 7 1024.0 - 0.0
01/03:30am 4.5 1.3 3.0 90 0.6 N 9 11 5 6 1023.9 - 0.0
01/03:00am 4.2 2.6 2.4 88 0.7 CALM 0 0 0 0 1023.6 1023.7 0.0
01/02:30am 4.9 3.4 2.9 87 0.8 CALM 0 0 0 0 1023.2 - 0.0
01/02:00am 5.9 3.4 3.7 86 0.9 ENE 6 7 3 4 1023.2 - 0.0
01/01:30am 5.8 4.4 3.3 84 1.0 CALM 0 0 0 0 1023.2 - 0.0
01/01:00am 6.5 3.8 3.8 83 1.2 SW 7 7 4 4 1023.1 - 0.0
01/12:30am 6.8 4.0 3.2 78 1.5 W 7 9 4 5 1023.0 - 0.0
01/12:00am 8.1 4.6 3.6 73 1.9 WSW 11 13 6 7 1022.9 1023.0 0.0
 
Date/Time
CST
Temp
°C
App
Temp
°C
Dew
Point
Rel
Hum
%
Delta-T
°C
Wind Press
QNH
hPa
Press
MSL
hPa
Rain
since 9 am
mm
Dir
 
Spd
km/h
Gust
km/h
Spd
kts
Gust
kts
30/11:30pm 8.8 5.7 3.4 69 2.3 SW 9 15 5 8 1022.5 - 0.0
30/11:00pm 9.9 6.0 3.4 64 2.8 SW 13 19 7 10 1022.3 - 0.0
30/10:30pm 11.2 7.0 4.0 61 3.2 SW 15 22 8 12 1022.2 - 0.0
30/10:00pm 12.1 8.8 8.2 77 1.9 WSW 15 20 8 11 1021.9 - 0.0
30/09:30pm 10.9 7.4 7.2 78 1.8 WSW 15 20 8 11 1021.6 - 0.0
30/09:00pm 11.6 7.7 7.1 74 2.2 W 17 24 9 13 1021.5 1021.6 0.0
30/08:30pm 13.0 7.3 6.6 65 3.1 WSW 26 33 14 18 1021.1 - 0.0
30/08:00pm 13.8 8.6 7.3 65 3.2 WSW 24 35 13 19 1020.6 - 0.0
30/07:30pm 13.6 8.5 7.6 67 3.0 WSW 24 35 13 19 1020.2 - 0.0
30/07:00pm 14.3 8.0 7.6 64 3.3 WSW 30 43 16 23 1019.4 - 0.0
30/06:30pm 13.7 9.3 7.5 66 3.1 SW 20 28 11 15 1018.7 - 0.0
30/06:00pm 14.6 8.9 6.9 60 3.8 SW 26 35 14 19 1018.3 1018.4 0.0
30/05:30pm 15.6 9.4 6.3 54 4.5 SW 28 39 15 21 1017.9 - 0.0
30/05:00pm 16.5 10.8 6.6 52 4.9 WSW 26 39 14 21 1017.5 - 0.0
30/04:30pm 16.7 10.3 8.4 58 4.2 SW 32 41 17 22 1017.1 - 0.0
30/04:00pm 16.1 9.4 8.3 60 4.0 WSW 33 48 18 26 1017.0 - 0.0
30/03:57pm 16.1 10.1 8.6 61 3.8 WSW 30 48 16 26 1016.9 - 0.0
30/03:30pm 17.2 11.4 9.6 61 4.0 SW 30 43 16 23 1016.3 - 0.0
30/03:00pm 18.0 11.5 10.4 61 4.1 SW 35 46 19 25 1016.0 1016.1 0.0
30/02:46pm 19.1 12.1 9.9 55 4.9 WSW 37 56 20 30 1015.8 - 0.0
30/02:30pm 19.9 11.5 9.5 51 5.5 W 44 57 24 31 1015.7 - 0.0
30/02:08pm 20.3 12.3 8.9 48 6.0 W 41 61 22 33 1015.6 - 0.0
30/02:00pm 20.6 12.3 9.5 49 5.9 W 43 59 23 32 1015.6 - 0.0
30/01:30pm 19.8 11.4 8.8 49 5.8 W 43 61 23 33 1015.4 - 0.0
30/01:29pm 19.9 11.8 8.6 48 5.9 W 41 59 22 32 1015.4 - 0.0
30/01:00pm 21.6 14.1 8.1 42 7.1 W 37 52 20 28 1015.4 - 0.0
30/12:30pm 20.6 11.9 7.9 44 6.6 W 43 61 23 33 1015.4 - 0.0
30/12:07pm 20.6 11.8 7.2 42 6.9 W 43 63 23 34 1015.2 - 0.0
30/12:00pm 21.8 13.6 8.3 42 7.1 W 41 57 22 31 1015.1 1015.2 0.0
30/11:30am 21.2 13.1 8.8 45 6.6 W 41 54 22 29 1015.0 - 0.0
30/11:00am 21.2 12.4 7.1 40 7.2 W 43 59 23 32 1014.8 - 0.0
30/10:38am 20.9 12.6 7.9 43 6.8 W 41 59 22 32 1014.8 - 0.0
30/10:30am 20.9 12.9 8.9 46 6.4 W 41 56 22 30 1014.8 - 0.0
30/10:13am 20.9 13.5 8.2 44 6.6 W 37 56 20 30 1014.8 - 0.0
30/10:00am 21.0 12.9 8.6 45 6.5 W 41 56 22 30 1014.7 - 0.0
30/09:30am 20.7 13.1 7.7 43 6.7 W 37 50 20 27 1014.4 - 0.0
30/09:18am 20.7 12.2 7.0 41 7.0 W 41 59 22 32 1014.5 - 0.0
30/09:00am 21.0 13.2 6.5 39 7.3 WNW 37 50 20 27 1014.3 1014.4 0.0
30/08:30am 19.6 12.8 6.7 43 6.5 WNW 32 43 17 23 1013.7 - 0.0
30/08:00am 18.3 11.5 6.8 47 5.8 NW 32 43 17 23 1013.2 - 0.0
30/07:48am 17.9 11.5 7.0 49 5.5 NW 30 48 16 26 1013.1 - 0.0
30/07:30am 16.1 11.1 8.1 59 4.1 NNW 24 39 13 21 1013.1 - 0.0
30/07:00am 11.6 8.4 8.5 81 1.5 N 15 20 8 11 1013.3 - 0.0
30/06:30am 10.0 5.8 7.4 84 1.2 N 19 22 10 12 1012.8 - 0.0
30/06:00am 9.1 4.7 6.7 85 1.1 N 19 22 10 12 1012.3 1012.3 0.0
30/05:30am 8.9 4.9 6.5 85 1.1 N 17 20 9 11 1012.0 - 0.0
30/05:00am 8.5 4.8 6.5 87 0.9 N 15 19 8 10 1011.8 - 0.0
30/04:30am 8.5 4.9 6.6 88 0.9 N 15 17 8 9 1011.4 - 0.0
30/04:00am 8.5 4.6 7.0 90 0.7 N 17 17 9 9 1011.3 - 0.0
30/03:30am 7.7 4.0 6.2 90 0.7 NNE 15 17 8 9 1011.4 - 0.0
30/03:00am 7.7 4.0 6.3 91 0.6 NNE 15 17 8 9 1011.8 1011.8 0.0
30/02:30am 8.1 4.6 7.0 93 0.5 NNE 15 17 8 9 1012.1 - 0.0
30/02:00am 7.6 4.3 6.4 92 0.5 NNE 13 17 7 9 1012.6 - 0.0
30/01:30am 7.4 3.7 6.2 92 0.5 NE 15 17 8 9 1012.9 - 0.0
30/01:00am 7.0 3.2 5.8 92 0.5 NNE 15 15 8 8 1013.4 - 0.0
30/12:30am 7.1 3.7 5.9 92 0.5 NNE 13 15 7 8 1013.9 - 0.0
30/12:00am 6.8 3.3 5.4 91 0.6 NNE 13 13 7 7 1014.0 1014.0 0.0
 
Date/Time
CST
Temp
°C
App
Temp
°C
Dew
Point
Rel
Hum
%
Delta-T
°C
Wind Press
QNH
hPa
Press
MSL
hPa
Rain
since 9 am
mm
Dir
 
Spd
km/h
Gust
km/h
Spd
kts
Gust
kts
29/11:30pm 6.6 3.4 5.1 90 0.7 N 11 13 6 7 1014.4 - 0.0
29/11:00pm 6.9 4.4 4.9 87 0.9 N 7 11 4 6 1014.5 - 0.0
29/10:30pm 8.2 5.3 6.5 89 0.8 N 11 13 6 7 1014.8 - 0.0
29/10:00pm 8.3 5.4 6.4 88 0.9 N 11 13 6 7 1015.0 - 0.0
29/09:30pm 8.9 5.4 7.0 88 0.9 N 15 15 8 8 1014.9 - 0.0
29/09:00pm 9.0 6.1 6.6 85 1.1 NW 11 13 6 7 1014.8 1014.9 0.0
29/08:30pm 10.1 7.4 7.2 82 1.4 W 11 13 6 7 1014.6 - 0.0
29/08:00pm 10.8 7.9 6.7 76 1.9 WSW 11 13 6 7 1014.3 - 0.0

Other Formats:

Comma delimited format used in spreadsheet applications
http://www.bom.gov.au/fwo/IDS60801/IDS60801.95671.axf

JavaScript Object Notation format (JSON) in row-major order
http://www.bom.gov.au/fwo/IDS60801/IDS60801.95671.json